sensor_id;sensor_type;location;lat;lon;timestamp;P1;durP1;ratioP1;P2;durP2;ratioP2
65855;SDS011;52631;42.208;24.656;2023-05-07T00:01:56;9.98;;;6.15;;
65855;SDS011;52631;42.208;24.656;2023-05-07T00:04:22;11.35;;;5.88;;
65855;SDS011;52631;42.208;24.656;2023-05-07T00:06:47;14.32;;;6.75;;
65855;SDS011;52631;42.208;24.656;2023-05-07T00:09:13;8.98;;;6.47;;
65855;SDS011;52631;42.208;24.656;2023-05-07T00:11:39;12.23;;;7.13;;
65855;SDS011;52631;42.208;24.656;2023-05-07T00:14:05;11.60;;;6.47;;
65855;SDS011;52631;42.208;24.656;2023-05-07T00:16:30;10.15;;;5.47;;
65855;SDS011;52631;42.208;24.656;2023-05-07T00:18:56;9.15;;;6.00;;
65855;SDS011;52631;42.208;24.656;2023-05-07T00:21:21;10.63;;;5.80;;
65855;SDS011;52631;42.208;24.656;2023-05-07T00:23:47;8.50;;;6.13;;
65855;SDS011;52631;42.208;24.656;2023-05-07T00:26:12;9.05;;;6.20;;
65855;SDS011;52631;42.208;24.656;2023-05-07T00:28:38;9.95;;;6.43;;
65855;SDS011;52631;42.208;24.656;2023-05-07T00:31:04;11.20;;;6.38;;
65855;SDS011;52631;42.208;24.656;2023-05-07T00:33:30;10.20;;;6.20;;
65855;SDS011;52631;42.208;24.656;2023-05-07T00:35:55;8.60;;;6.00;;
65855;SDS011;52631;42.208;24.656;2023-05-07T00:38:20;10.70;;;6.40;;
65855;SDS011;52631;42.208;24.656;2023-05-07T00:40:46;8.38;;;5.93;;
65855;SDS011;52631;42.208;24.656;2023-05-07T00:43:11;10.02;;;5.90;;
65855;SDS011;52631;42.208;24.656;2023-05-07T00:45:37;8.15;;;5.63;;
65855;SDS011;52631;42.208;24.656;2023-05-07T00:48:03;9.10;;;5.30;;
65855;SDS011;52631;42.208;24.656;2023-05-07T00:50:29;8.32;;;5.63;;
65855;SDS011;52631;42.208;24.656;2023-05-07T00:52:55;9.63;;;6.53;;
65855;SDS011;52631;42.208;24.656;2023-05-07T00:55:21;10.55;;;5.90;;
65855;SDS011;52631;42.208;24.656;2023-05-07T00:57:47;8.75;;;5.38;;
65855;SDS011;52631;42.208;24.656;2023-05-07T01:00:13;8.93;;;6.00;;
65855;SDS011;52631;42.208;24.656;2023-05-07T01:02:39;9.32;;;5.55;;
65855;SDS011;52631;42.208;24.656;2023-05-07T01:05:05;8.63;;;5.72;;
65855;SDS011;52631;42.208;24.656;2023-05-07T01:07:32;10.23;;;5.53;;
65855;SDS011;52631;42.208;24.656;2023-05-07T01:09:58;7.57;;;6.15;;
65855;SDS011;52631;42.208;24.656;2023-05-07T01:12:24;9.52;;;5.97;;
65855;SDS011;52631;42.208;24.656;2023-05-07T01:14:50;12.05;;;6.38;;
65855;SDS011;52631;42.208;24.656;2023-05-07T01:17:16;8.88;;;6.05;;
65855;SDS011;52631;42.208;24.656;2023-05-07T01:19:42;9.90;;;6.28;;
65855;SDS011;52631;42.208;24.656;2023-05-07T01:22:08;11.23;;;6.38;;
65855;SDS011;52631;42.208;24.656;2023-05-07T01:24:35;10.00;;;6.63;;
65855;SDS011;52631;42.208;24.656;2023-05-07T01:27:01;9.98;;;6.10;;
65855;SDS011;52631;42.208;24.656;2023-05-07T01:29:27;10.43;;;7.10;;
65855;SDS011;52631;42.208;24.656;2023-05-07T01:31:53;9.27;;;6.70;;
65855;SDS011;52631;42.208;24.656;2023-05-07T01:34:20;12.45;;;7.05;;
65855;SDS011;52631;42.208;24.656;2023-05-07T01:36:46;11.05;;;7.43;;
65855;SDS011;52631;42.208;24.656;2023-05-07T01:39:12;12.95;;;7.75;;
65855;SDS011;52631;42.208;24.656;2023-05-07T01:41:38;13.13;;;8.15;;
65855;SDS011;52631;42.208;24.656;2023-05-07T01:44:04;12.27;;;8.50;;
65855;SDS011;52631;42.208;24.656;2023-05-07T01:46:30;11.63;;;7.90;;
65855;SDS011;52631;42.208;24.656;2023-05-07T01:48:56;12.50;;;8.93;;
65855;SDS011;52631;42.208;24.656;2023-05-07T01:51:21;11.95;;;8.70;;
65855;SDS011;52631;42.208;24.656;2023-05-07T01:53:47;13.02;;;8.73;;
65855;SDS011;52631;42.208;24.656;2023-05-07T01:56:16;13.10;;;8.43;;
65855;SDS011;52631;42.208;24.656;2023-05-07T01:58:42;13.60;;;9.07;;
65855;SDS011;52631;42.208;24.656;2023-05-07T02:01:09;13.00;;;8.70;;
65855;SDS011;52631;42.208;24.656;2023-05-07T02:03:35;12.70;;;7.95;;
65855;SDS011;52631;42.208;24.656;2023-05-07T02:06:00;10.65;;;8.07;;
65855;SDS011;52631;42.208;24.656;2023-05-07T02:08:26;14.40;;;8.32;;
65855;SDS011;52631;42.208;24.656;2023-05-07T02:10:52;11.25;;;7.70;;
65855;SDS011;52631;42.208;24.656;2023-05-07T02:13:18;21.10;;;9.80;;
65855;SDS011;52631;42.208;24.656;2023-05-07T02:15:44;12.30;;;9.15;;
65855;SDS011;52631;42.208;24.656;2023-05-07T02:18:14;12.10;;;8.48;;
65855;SDS011;52631;42.208;24.656;2023-05-07T02:20:40;12.07;;;8.70;;
65855;SDS011;52631;42.208;24.656;2023-05-07T02:23:05;12.95;;;8.23;;
65855;SDS011;52631;42.208;24.656;2023-05-07T02:25:31;15.45;;;10.07;;
65855;SDS011;52631;42.208;24.656;2023-05-07T02:27:56;13.32;;;9.38;;
65855;SDS011;52631;42.208;24.656;2023-05-07T02:30:22;16.15;;;10.75;;
65855;SDS011;52631;42.208;24.656;2023-05-07T02:32:47;14.27;;;10.27;;
65855;SDS011;52631;42.208;24.656;2023-05-07T02:35:13;15.30;;;10.95;;
65855;SDS011;52631;42.208;24.656;2023-05-07T02:37:38;17.58;;;11.48;;
65855;SDS011;52631;42.208;24.656;2023-05-07T02:40:04;15.45;;;10.40;;
65855;SDS011;52631;42.208;24.656;2023-05-07T02:42:30;14.75;;;10.30;;
65855;SDS011;52631;42.208;24.656;2023-05-07T02:44:56;14.70;;;10.38;;
65855;SDS011;52631;42.208;24.656;2023-05-07T02:47:21;13.45;;;8.88;;
65855;SDS011;52631;42.208;24.656;2023-05-07T02:49:47;16.83;;;10.35;;
65855;SDS011;52631;42.208;24.656;2023-05-07T02:52:12;14.05;;;9.65;;
65855;SDS011;52631;42.208;24.656;2023-05-07T02:54:38;17.45;;;11.18;;
65855;SDS011;52631;42.208;24.656;2023-05-07T02:57:03;18.25;;;10.43;;
65855;SDS011;52631;42.208;24.656;2023-05-07T02:59:29;15.35;;;10.30;;
65855;SDS011;52631;42.208;24.656;2023-05-07T03:01:54;14.65;;;10.57;;
65855;SDS011;52631;42.208;24.656;2023-05-07T03:04:20;14.27;;;10.73;;
65855;SDS011;52631;42.208;24.656;2023-05-07T03:06:46;19.00;;;10.88;;
65855;SDS011;52631;42.208;24.656;2023-05-07T03:09:11;21.98;;;12.75;;
65855;SDS011;52631;42.208;24.656;2023-05-07T03:11:37;17.05;;;10.68;;
65855;SDS011;52631;42.208;24.656;2023-05-07T03:14:02;15.32;;;10.52;;
65855;SDS011;52631;42.208;24.656;2023-05-07T03:16:27;16.80;;;11.05;;
65855;SDS011;52631;42.208;24.656;2023-05-07T03:18:53;18.27;;;11.27;;
65855;SDS011;52631;42.208;24.656;2023-05-07T03:21:19;15.52;;;11.68;;
65855;SDS011;52631;42.208;24.656;2023-05-07T03:23:44;20.02;;;12.20;;
65855;SDS011;52631;42.208;24.656;2023-05-07T03:26:10;14.10;;;10.02;;
65855;SDS011;52631;42.208;24.656;2023-05-07T03:28:36;14.82;;;10.77;;
65855;SDS011;52631;42.208;24.656;2023-05-07T03:31:02;14.82;;;10.30;;
65855;SDS011;52631;42.208;24.656;2023-05-07T03:33:27;15.70;;;10.30;;
65855;SDS011;52631;42.208;24.656;2023-05-07T03:35:52;17.92;;;11.55;;
65855;SDS011;52631;42.208;24.656;2023-05-07T03:38:18;15.80;;;11.00;;
65855;SDS011;52631;42.208;24.656;2023-05-07T03:40:43;18.73;;;12.15;;
65855;SDS011;52631;42.208;24.656;2023-05-07T03:43:09;15.48;;;11.25;;
65855;SDS011;52631;42.208;24.656;2023-05-07T03:45:35;14.10;;;9.95;;
65855;SDS011;52631;42.208;24.656;2023-05-07T03:48:00;17.08;;;10.48;;
65855;SDS011;52631;42.208;24.656;2023-05-07T03:50:26;15.73;;;10.48;;
65855;SDS011;52631;42.208;24.656;2023-05-07T03:52:51;15.82;;;10.82;;
65855;SDS011;52631;42.208;24.656;2023-05-07T03:55:17;14.32;;;10.57;;
65855;SDS011;52631;42.208;24.656;2023-05-07T03:57:42;16.50;;;11.38;;
65855;SDS011;52631;42.208;24.656;2023-05-07T04:00:08;46.70;;;26.27;;
65855;SDS011;52631;42.208;24.656;2023-05-07T04:02:34;30.90;;;18.00;;
65855;SDS011;52631;42.208;24.656;2023-05-07T04:04:59;22.42;;;13.98;;
65855;SDS011;52631;42.208;24.656;2023-05-07T04:07:25;15.30;;;9.75;;
65855;SDS011;52631;42.208;24.656;2023-05-07T04:09:51;15.15;;;10.25;;
65855;SDS011;52631;42.208;24.656;2023-05-07T04:12:16;13.60;;;8.73;;
65855;SDS011;52631;42.208;24.656;2023-05-07T04:14:42;15.50;;;9.10;;
65855;SDS011;52631;42.208;24.656;2023-05-07T04:17:07;16.08;;;8.57;;
65855;SDS011;52631;42.208;24.656;2023-05-07T04:19:34;12.23;;;8.55;;
65855;SDS011;52631;42.208;24.656;2023-05-07T04:22:00;12.43;;;8.25;;
65855;SDS011;52631;42.208;24.656;2023-05-07T04:24:25;11.82;;;9.10;;
65855;SDS011;52631;42.208;24.656;2023-05-07T04:26:51;12.57;;;8.48;;
65855;SDS011;52631;42.208;24.656;2023-05-07T04:29:17;10.77;;;7.95;;
65855;SDS011;52631;42.208;24.656;2023-05-07T04:31:43;11.70;;;8.32;;
65855;SDS011;52631;42.208;24.656;2023-05-07T04:34:10;11.63;;;9.27;;
65855;SDS011;52631;42.208;24.656;2023-05-07T04:36:36;14.18;;;9.20;;
65855;SDS011;52631;42.208;24.656;2023-05-07T04:39:03;11.88;;;8.90;;
65855;SDS011;52631;42.208;24.656;2023-05-07T04:41:28;13.70;;;9.70;;
65855;SDS011;52631;42.208;24.656;2023-05-07T04:43:55;13.98;;;9.38;;
65855;SDS011;52631;42.208;24.656;2023-05-07T04:46:21;15.52;;;10.00;;
65855;SDS011;52631;42.208;24.656;2023-05-07T04:48:47;16.75;;;9.48;;
65855;SDS011;52631;42.208;24.656;2023-05-07T04:51:13;13.60;;;8.90;;
65855;SDS011;52631;42.208;24.656;2023-05-07T04:53:38;11.73;;;8.57;;
65855;SDS011;52631;42.208;24.656;2023-05-07T04:56:03;13.00;;;8.00;;
65855;SDS011;52631;42.208;24.656;2023-05-07T04:58:29;11.10;;;7.55;;
65855;SDS011;52631;42.208;24.656;2023-05-07T05:00:56;13.65;;;7.32;;
65855;SDS011;52631;42.208;24.656;2023-05-07T05:03:23;12.05;;;7.10;;
65855;SDS011;52631;42.208;24.656;2023-05-07T05:05:50;8.82;;;6.80;;
65855;SDS011;52631;42.208;24.656;2023-05-07T05:08:17;9.50;;;6.35;;
65855;SDS011;52631;42.208;24.656;2023-05-07T05:10:42;11.00;;;6.97;;
65855;SDS011;52631;42.208;24.656;2023-05-07T05:13:08;10.45;;;6.65;;
65855;SDS011;52631;42.208;24.656;2023-05-07T05:15:34;7.70;;;6.05;;
65855;SDS011;52631;42.208;24.656;2023-05-07T05:18:00;9.25;;;7.20;;
65855;SDS011;52631;42.208;24.656;2023-05-07T05:20:25;10.43;;;6.80;;
65855;SDS011;52631;42.208;24.656;2023-05-07T05:22:51;10.27;;;7.13;;
65855;SDS011;52631;42.208;24.656;2023-05-07T05:25:16;10.82;;;6.57;;
65855;SDS011;52631;42.208;24.656;2023-05-07T05:27:42;11.25;;;6.30;;
65855;SDS011;52631;42.208;24.656;2023-05-07T05:30:07;9.43;;;6.55;;
65855;SDS011;52631;42.208;24.656;2023-05-07T05:32:33;11.18;;;7.20;;
65855;SDS011;52631;42.208;24.656;2023-05-07T05:34:59;9.65;;;6.38;;
65855;SDS011;52631;42.208;24.656;2023-05-07T05:37:24;9.05;;;5.93;;
65855;SDS011;52631;42.208;24.656;2023-05-07T05:39:50;9.98;;;6.13;;
65855;SDS011;52631;42.208;24.656;2023-05-07T05:42:15;9.43;;;6.30;;
65855;SDS011;52631;42.208;24.656;2023-05-07T05:44:41;8.57;;;6.13;;
65855;SDS011;52631;42.208;24.656;2023-05-07T05:47:06;9.70;;;5.85;;
65855;SDS011;52631;42.208;24.656;2023-05-07T05:49:32;11.02;;;6.30;;
65855;SDS011;52631;42.208;24.656;2023-05-07T05:51:57;9.20;;;6.18;;
65855;SDS011;52631;42.208;24.656;2023-05-07T05:54:23;9.18;;;6.07;;
65855;SDS011;52631;42.208;24.656;2023-05-07T05:56:48;7.32;;;5.82;;
65855;SDS011;52631;42.208;24.656;2023-05-07T05:59:14;8.75;;;6.10;;
65855;SDS011;52631;42.208;24.656;2023-05-07T06:01:39;8.95;;;5.60;;
65855;SDS011;52631;42.208;24.656;2023-05-07T06:04:05;8.05;;;5.35;;
65855;SDS011;52631;42.208;24.656;2023-05-07T06:06:30;7.18;;;5.40;;
65855;SDS011;52631;42.208;24.656;2023-05-07T06:08:56;9.10;;;5.45;;
65855;SDS011;52631;42.208;24.656;2023-05-07T06:11:22;7.80;;;4.97;;
65855;SDS011;52631;42.208;24.656;2023-05-07T06:13:47;8.23;;;5.38;;
65855;SDS011;52631;42.208;24.656;2023-05-07T06:16:13;7.28;;;5.13;;
65855;SDS011;52631;42.208;24.656;2023-05-07T06:18:40;7.07;;;5.10;;
65855;SDS011;52631;42.208;24.656;2023-05-07T06:21:05;8.88;;;5.13;;
65855;SDS011;52631;42.208;24.656;2023-05-07T06:23:30;6.40;;;4.60;;
65855;SDS011;52631;42.208;24.656;2023-05-07T06:25:56;8.30;;;4.90;;
65855;SDS011;52631;42.208;24.656;2023-05-07T06:28:21;9.45;;;4.82;;
65855;SDS011;52631;42.208;24.656;2023-05-07T06:30:47;6.72;;;4.53;;
65855;SDS011;52631;42.208;24.656;2023-05-07T06:33:14;7.68;;;4.88;;
65855;SDS011;52631;42.208;24.656;2023-05-07T06:35:40;6.00;;;4.28;;
65855;SDS011;52631;42.208;24.656;2023-05-07T06:38:06;8.20;;;4.63;;
65855;SDS011;52631;42.208;24.656;2023-05-07T06:40:31;7.30;;;4.63;;
65855;SDS011;52631;42.208;24.656;2023-05-07T06:42:57;7.97;;;4.68;;
65855;SDS011;52631;42.208;24.656;2023-05-07T06:45:22;6.90;;;5.03;;
65855;SDS011;52631;42.208;24.656;2023-05-07T06:47:48;7.20;;;4.90;;
65855;SDS011;52631;42.208;24.656;2023-05-07T06:50:14;7.60;;;4.80;;
65855;SDS011;52631;42.208;24.656;2023-05-07T06:52:41;8.77;;;4.50;;
65855;SDS011;52631;42.208;24.656;2023-05-07T06:55:07;6.97;;;4.47;;
65855;SDS011;52631;42.208;24.656;2023-05-07T06:57:33;9.38;;;4.82;;
65855;SDS011;52631;42.208;24.656;2023-05-07T06:59:58;6.70;;;4.63;;
65855;SDS011;52631;42.208;24.656;2023-05-07T07:02:24;6.15;;;4.45;;
65855;SDS011;52631;42.208;24.656;2023-05-07T07:04:49;5.68;;;4.03;;
65855;SDS011;52631;42.208;24.656;2023-05-07T07:07:15;8.93;;;4.45;;
65855;SDS011;52631;42.208;24.656;2023-05-07T07:09:40;6.90;;;4.72;;
65855;SDS011;52631;42.208;24.656;2023-05-07T07:12:06;6.88;;;4.43;;
65855;SDS011;52631;42.208;24.656;2023-05-07T07:14:32;6.50;;;4.82;;
65855;SDS011;52631;42.208;24.656;2023-05-07T07:16:57;8.80;;;4.90;;
65855;SDS011;52631;42.208;24.656;2023-05-07T07:19:23;6.97;;;4.82;;
65855;SDS011;52631;42.208;24.656;2023-05-07T07:21:48;6.88;;;4.20;;
65855;SDS011;52631;42.208;24.656;2023-05-07T07:24:14;5.60;;;3.92;;
65855;SDS011;52631;42.208;24.656;2023-05-07T07:26:46;13.15;;;4.68;;
65855;SDS011;52631;42.208;24.656;2023-05-07T07:29:11;8.30;;;5.18;;
65855;SDS011;52631;42.208;24.656;2023-05-07T07:31:37;8.30;;;4.30;;
65855;SDS011;52631;42.208;24.656;2023-05-07T07:34:02;6.53;;;4.60;;
65855;SDS011;52631;42.208;24.656;2023-05-07T07:36:28;6.90;;;4.70;;
65855;SDS011;52631;42.208;24.656;2023-05-07T07:38:53;8.85;;;5.05;;
65855;SDS011;52631;42.208;24.656;2023-05-07T07:41:19;9.10;;;4.47;;
65855;SDS011;52631;42.208;24.656;2023-05-07T07:43:44;8.35;;;4.40;;
65855;SDS011;52631;42.208;24.656;2023-05-07T07:46:11;6.00;;;4.53;;
65855;SDS011;52631;42.208;24.656;2023-05-07T07:48:37;6.80;;;4.68;;
65855;SDS011;52631;42.208;24.656;2023-05-07T07:51:02;5.63;;;4.43;;
65855;SDS011;52631;42.208;24.656;2023-05-07T07:53:28;6.28;;;4.72;;
65855;SDS011;52631;42.208;24.656;2023-05-07T07:55:54;8.35;;;4.70;;
65855;SDS011;52631;42.208;24.656;2023-05-07T07:58:19;6.85;;;4.90;;
65855;SDS011;52631;42.208;24.656;2023-05-07T08:00:45;8.32;;;4.95;;
65855;SDS011;52631;42.208;24.656;2023-05-07T08:03:12;6.97;;;4.97;;
65855;SDS011;52631;42.208;24.656;2023-05-07T08:05:37;10.05;;;4.78;;
65855;SDS011;52631;42.208;24.656;2023-05-07T08:08:03;6.30;;;4.25;;
65855;SDS011;52631;42.208;24.656;2023-05-07T08:10:29;7.15;;;4.45;;
65855;SDS011;52631;42.208;24.656;2023-05-07T08:12:54;7.70;;;4.93;;
65855;SDS011;52631;42.208;24.656;2023-05-07T08:15:20;7.30;;;4.88;;
65855;SDS011;52631;42.208;24.656;2023-05-07T08:17:45;6.68;;;4.63;;
65855;SDS011;52631;42.208;24.656;2023-05-07T08:20:11;7.05;;;4.70;;
65855;SDS011;52631;42.208;24.656;2023-05-07T08:22:36;6.88;;;4.20;;
65855;SDS011;52631;42.208;24.656;2023-05-07T08:25:02;10.15;;;5.07;;
65855;SDS011;52631;42.208;24.656;2023-05-07T08:27:28;6.28;;;4.50;;
65855;SDS011;52631;42.208;24.656;2023-05-07T08:29:53;5.90;;;4.45;;
65855;SDS011;52631;42.208;24.656;2023-05-07T08:32:19;5.55;;;3.67;;
65855;SDS011;52631;42.208;24.656;2023-05-07T08:34:45;7.20;;;4.00;;
65855;SDS011;52631;42.208;24.656;2023-05-07T08:37:11;6.50;;;4.63;;
65855;SDS011;52631;42.208;24.656;2023-05-07T08:39:36;7.65;;;5.10;;
65855;SDS011;52631;42.208;24.656;2023-05-07T08:42:01;7.75;;;4.43;;
65855;SDS011;52631;42.208;24.656;2023-05-07T08:44:31;5.85;;;4.55;;
65855;SDS011;52631;42.208;24.656;2023-05-07T08:46:59;11.15;;;4.22;;
65855;SDS011;52631;42.208;24.656;2023-05-07T08:49:25;7.05;;;4.50;;
65855;SDS011;52631;42.208;24.656;2023-05-07T08:51:51;6.60;;;4.28;;
65855;SDS011;52631;42.208;24.656;2023-05-07T08:54:17;6.60;;;4.68;;
65855;SDS011;52631;42.208;24.656;2023-05-07T08:56:44;7.45;;;4.03;;
65855;SDS011;52631;42.208;24.656;2023-05-07T08:59:10;6.07;;;4.15;;
65855;SDS011;52631;42.208;24.656;2023-05-07T09:01:35;5.68;;;4.10;;
65855;SDS011;52631;42.208;24.656;2023-05-07T09:04:01;7.70;;;4.13;;
65855;SDS011;52631;42.208;24.656;2023-05-07T09:06:27;7.65;;;4.32;;
65855;SDS011;52631;42.208;24.656;2023-05-07T09:08:53;6.45;;;4.20;;
65855;SDS011;52631;42.208;24.656;2023-05-07T09:11:19;7.43;;;3.72;;
65855;SDS011;52631;42.208;24.656;2023-05-07T09:13:46;6.18;;;3.63;;
65855;SDS011;52631;42.208;24.656;2023-05-07T09:16:12;5.85;;;3.47;;
65855;SDS011;52631;42.208;24.656;2023-05-07T09:18:44;19.92;;;4.93;;
65855;SDS011;52631;42.208;24.656;2023-05-07T09:21:19;10.95;;;3.70;;
65855;SDS011;52631;42.208;24.656;2023-05-07T09:23:47;6.30;;;4.18;;
65855;SDS011;52631;42.208;24.656;2023-05-07T09:26:13;9.48;;;4.00;;
65855;SDS011;52631;42.208;24.656;2023-05-07T09:28:40;7.15;;;3.67;;
65855;SDS011;52631;42.208;24.656;2023-05-07T09:31:09;7.22;;;4.20;;
65855;SDS011;52631;42.208;24.656;2023-05-07T09:33:35;5.03;;;3.65;;
65855;SDS011;52631;42.208;24.656;2023-05-07T09:36:07;4.78;;;3.25;;
65855;SDS011;52631;42.208;24.656;2023-05-07T09:38:35;5.60;;;3.28;;
65855;SDS011;52631;42.208;24.656;2023-05-07T09:41:01;15.55;;;3.90;;
65855;SDS011;52631;42.208;24.656;2023-05-07T09:43:37;6.30;;;3.30;;
65855;SDS011;52631;42.208;24.656;2023-05-07T09:46:10;6.07;;;3.00;;
65855;SDS011;52631;42.208;24.656;2023-05-07T09:48:38;7.15;;;3.20;;
65855;SDS011;52631;42.208;24.656;2023-05-07T09:51:06;7.00;;;3.03;;
65855;SDS011;52631;42.208;24.656;2023-05-07T09:53:37;7.22;;;3.10;;
65855;SDS011;52631;42.208;24.656;2023-05-07T09:56:03;5.10;;;3.17;;
65855;SDS011;52631;42.208;24.656;2023-05-07T09:58:28;4.20;;;2.83;;
65855;SDS011;52631;42.208;24.656;2023-05-07T10:00:54;4.97;;;3.20;;
65855;SDS011;52631;42.208;24.656;2023-05-07T10:03:21;7.75;;;2.85;;
65855;SDS011;52631;42.208;24.656;2023-05-07T10:05:47;4.70;;;2.75;;
65855;SDS011;52631;42.208;24.656;2023-05-07T10:08:13;5.10;;;3.00;;
65855;SDS011;52631;42.208;24.656;2023-05-07T10:10:41;5.72;;;3.10;;
65855;SDS011;52631;42.208;24.656;2023-05-07T10:13:07;5.85;;;3.63;;
65855;SDS011;52631;42.208;24.656;2023-05-07T10:15:35;4.55;;;2.95;;
65855;SDS011;52631;42.208;24.656;2023-05-07T10:18:02;4.95;;;3.15;;
65855;SDS011;52631;42.208;24.656;2023-05-07T10:20:28;5.03;;;3.33;;
65855;SDS011;52631;42.208;24.656;2023-05-07T10:22:54;6.55;;;2.97;;
65855;SDS011;52631;42.208;24.656;2023-05-07T10:25:22;4.82;;;3.22;;
65855;SDS011;52631;42.208;24.656;2023-05-07T10:27:49;4.63;;;3.13;;
65855;SDS011;52631;42.208;24.656;2023-05-07T10:32:49;5.00;;;3.17;;
65855;SDS011;52631;42.208;24.656;2023-05-07T10:35:23;4.70;;;2.95;;
65855;SDS011;52631;42.208;24.656;2023-05-07T10:37:50;4.40;;;3.08;;
65855;SDS011;52631;42.208;24.656;2023-05-07T10:40:16;5.00;;;3.40;;
65855;SDS011;52631;42.208;24.656;2023-05-07T10:42:58;6.95;;;3.25;;
65855;SDS011;52631;42.208;24.656;2023-05-07T10:45:25;4.75;;;2.80;;
65855;SDS011;52631;42.208;24.656;2023-05-07T10:48:07;7.00;;;3.53;;
65855;SDS011;52631;42.208;24.656;2023-05-07T10:50:34;6.25;;;3.65;;
65855;SDS011;52631;42.208;24.656;2023-05-07T10:55:47;5.82;;;2.90;;
65855;SDS011;52631;42.208;24.656;2023-05-07T10:58:29;6.22;;;3.42;;
65855;SDS011;52631;42.208;24.656;2023-05-07T11:00:59;5.32;;;3.25;;
65855;SDS011;52631;42.208;24.656;2023-05-07T11:14:42;6.30;;;3.30;;
65855;SDS011;52631;42.208;24.656;2023-05-07T11:17:10;7.60;;;3.00;;
65855;SDS011;52631;42.208;24.656;2023-05-07T11:19:52;5.97;;;3.13;;
65855;SDS011;52631;42.208;24.656;2023-05-07T11:22:39;5.18;;;3.00;;
65855;SDS011;52631;42.208;24.656;2023-05-07T11:25:08;7.60;;;4.10;;
65855;SDS011;52631;42.208;24.656;2023-05-07T11:27:34;4.55;;;2.83;;
65855;SDS011;52631;42.208;24.656;2023-05-07T11:30:00;4.97;;;3.05;;
65855;SDS011;52631;42.208;24.656;2023-05-07T11:32:29;5.47;;;2.83;;
65855;SDS011;52631;42.208;24.656;2023-05-07T11:34:59;5.68;;;3.30;;
65855;SDS011;52631;42.208;24.656;2023-05-07T11:37:26;7.75;;;2.90;;
65855;SDS011;52631;42.208;24.656;2023-05-07T11:42:36;4.85;;;3.00;;
65855;SDS011;52631;42.208;24.656;2023-05-07T11:45:02;4.28;;;2.85;;
65855;SDS011;52631;42.208;24.656;2023-05-07T11:47:31;4.53;;;2.60;;
65855;SDS011;52631;42.208;24.656;2023-05-07T11:49:57;4.53;;;2.88;;
65855;SDS011;52631;42.208;24.656;2023-05-07T11:52:30;4.32;;;2.72;;
65855;SDS011;52631;42.208;24.656;2023-05-07T11:54:57;3.67;;;2.50;;
65855;SDS011;52631;42.208;24.656;2023-05-07T11:57:24;5.00;;;2.72;;
65855;SDS011;52631;42.208;24.656;2023-05-07T11:59:56;4.78;;;2.65;;
65855;SDS011;52631;42.208;24.656;2023-05-07T12:02:23;5.55;;;2.53;;
65855;SDS011;52631;42.208;24.656;2023-05-07T12:04:50;5.80;;;2.63;;
65855;SDS011;52631;42.208;24.656;2023-05-07T12:07:16;4.47;;;2.58;;
65855;SDS011;52631;42.208;24.656;2023-05-07T12:09:43;5.10;;;2.65;;
65855;SDS011;52631;42.208;24.656;2023-05-07T12:12:09;4.32;;;2.70;;
65855;SDS011;52631;42.208;24.656;2023-05-07T12:14:41;5.35;;;2.92;;
65855;SDS011;52631;42.208;24.656;2023-05-07T12:17:08;5.15;;;2.63;;
65855;SDS011;52631;42.208;24.656;2023-05-07T12:19:34;4.32;;;2.70;;
65855;SDS011;52631;42.208;24.656;2023-05-07T12:22:01;4.97;;;2.65;;
65855;SDS011;52631;42.208;24.656;2023-05-07T12:24:27;4.28;;;2.50;;
65855;SDS011;52631;42.208;24.656;2023-05-07T12:26:53;5.30;;;3.30;;
65855;SDS011;52631;42.208;24.656;2023-05-07T12:29:22;5.40;;;2.80;;
65855;SDS011;52631;42.208;24.656;2023-05-07T12:31:48;4.57;;;2.63;;
65855;SDS011;52631;42.208;24.656;2023-05-07T12:34:14;5.38;;;2.67;;
65855;SDS011;52631;42.208;24.656;2023-05-07T12:36:40;5.00;;;2.83;;
65855;SDS011;52631;42.208;24.656;2023-05-07T12:39:06;4.47;;;2.90;;
65855;SDS011;52631;42.208;24.656;2023-05-07T12:41:52;4.75;;;2.80;;
65855;SDS011;52631;42.208;24.656;2023-05-07T12:44:21;7.32;;;2.90;;
65855;SDS011;52631;42.208;24.656;2023-05-07T12:46:47;4.90;;;2.85;;
65855;SDS011;52631;42.208;24.656;2023-05-07T12:49:12;4.18;;;2.53;;
65855;SDS011;52631;42.208;24.656;2023-05-07T12:51:38;3.90;;;2.55;;
65855;SDS011;52631;42.208;24.656;2023-05-07T12:54:03;3.92;;;2.80;;
65855;SDS011;52631;42.208;24.656;2023-05-07T12:56:30;4.30;;;2.80;;
65855;SDS011;52631;42.208;24.656;2023-05-07T12:58:59;4.78;;;3.00;;
65855;SDS011;52631;42.208;24.656;2023-05-07T13:01:28;5.38;;;2.97;;
65855;SDS011;52631;42.208;24.656;2023-05-07T13:04:02;4.78;;;2.70;;
65855;SDS011;52631;42.208;24.656;2023-05-07T13:06:29;8.35;;;3.03;;
65855;SDS011;52631;42.208;24.656;2023-05-07T13:08:55;6.85;;;2.70;;
65855;SDS011;52631;42.208;24.656;2023-05-07T13:11:21;4.10;;;2.60;;
65855;SDS011;52631;42.208;24.656;2023-05-07T13:13:47;4.10;;;2.78;;
65855;SDS011;52631;42.208;24.656;2023-05-07T13:16:13;5.97;;;2.83;;
65855;SDS011;52631;42.208;24.656;2023-05-07T13:18:39;3.92;;;2.70;;
65855;SDS011;52631;42.208;24.656;2023-05-07T13:21:05;5.35;;;2.60;;
65855;SDS011;52631;42.208;24.656;2023-05-07T13:23:31;5.13;;;3.20;;
65855;SDS011;52631;42.208;24.656;2023-05-07T13:25:56;5.55;;;3.20;;
65855;SDS011;52631;42.208;24.656;2023-05-07T13:28:24;4.63;;;2.70;;
65855;SDS011;52631;42.208;24.656;2023-05-07T13:30:50;4.30;;;2.75;;
65855;SDS011;52631;42.208;24.656;2023-05-07T13:33:19;7.32;;;2.83;;
65855;SDS011;52631;42.208;24.656;2023-05-07T13:35:45;4.10;;;2.72;;
65855;SDS011;52631;42.208;24.656;2023-05-07T13:38:10;4.30;;;2.67;;
65855;SDS011;52631;42.208;24.656;2023-05-07T13:40:36;5.03;;;2.50;;
65855;SDS011;52631;42.208;24.656;2023-05-07T13:43:01;5.60;;;2.60;;
65855;SDS011;52631;42.208;24.656;2023-05-07T13:45:27;5.75;;;2.92;;
65855;SDS011;52631;42.208;24.656;2023-05-07T13:47:54;4.53;;;2.67;;
65855;SDS011;52631;42.208;24.656;2023-05-07T13:50:20;4.50;;;2.63;;
65855;SDS011;52631;42.208;24.656;2023-05-07T13:52:46;9.90;;;2.78;;
65855;SDS011;52631;42.208;24.656;2023-05-07T13:55:16;4.68;;;2.63;;
65855;SDS011;52631;42.208;24.656;2023-05-07T13:57:45;3.78;;;2.53;;
65855;SDS011;52631;42.208;24.656;2023-05-07T14:00:11;5.50;;;2.72;;
65855;SDS011;52631;42.208;24.656;2023-05-07T14:02:37;6.75;;;2.67;;
65855;SDS011;52631;42.208;24.656;2023-05-07T14:05:03;4.18;;;2.95;;
65855;SDS011;52631;42.208;24.656;2023-05-07T14:07:29;3.53;;;2.42;;
65855;SDS011;52631;42.208;24.656;2023-05-07T14:09:54;4.32;;;2.40;;
65855;SDS011;52631;42.208;24.656;2023-05-07T14:12:21;5.07;;;2.33;;
65855;SDS011;52631;42.208;24.656;2023-05-07T14:14:46;6.03;;;2.53;;
65855;SDS011;52631;42.208;24.656;2023-05-07T14:17:12;3.30;;;2.20;;
65855;SDS011;52631;42.208;24.656;2023-05-07T14:19:38;4.13;;;2.30;;
65855;SDS011;52631;42.208;24.656;2023-05-07T14:22:03;5.55;;;2.40;;
65855;SDS011;52631;42.208;24.656;2023-05-07T14:24:28;4.68;;;2.20;;
65855;SDS011;52631;42.208;24.656;2023-05-07T14:26:54;4.25;;;2.13;;
65855;SDS011;52631;42.208;24.656;2023-05-07T14:29:20;8.10;;;2.10;;
65855;SDS011;52631;42.208;24.656;2023-05-07T14:31:45;4.20;;;2.25;;
65855;SDS011;52631;42.208;24.656;2023-05-07T14:34:11;5.10;;;2.17;;
65855;SDS011;52631;42.208;24.656;2023-05-07T14:36:36;4.05;;;2.28;;
65855;SDS011;52631;42.208;24.656;2023-05-07T14:39:03;4.43;;;2.25;;
65855;SDS011;52631;42.208;24.656;2023-05-07T14:41:28;3.60;;;2.20;;
65855;SDS011;52631;42.208;24.656;2023-05-07T14:43:54;4.28;;;1.92;;